Time;durP1;ratioP1;P1;durP2;ratioP2;P2;SDS_P1;SDS_P2;PMS_P1;PMS_P2;Temp;Humidity;BMP_temperature;BMP_pressure;BME280_temperature;BME280_humidity;BME280_pressure;Samples;Min_cycle;Max_cycle;Signal;HPM_P1;HPM_P2
2022/10/09 00:00:30;;;;;;;5.80;3.25;;;11.80;99.90;;;;;;10404864;28;20079;-80
2022/10/09 00:05:30;;;;;;;6.38;3.50;;;11.80;99.90;;;;;;10395619;28;20052;-78
2022/10/09 00:10:31;;;;;;;8.75;3.40;;;11.70;99.90;;;;;;10401386;28;20038;-77
2022/10/09 00:15:35;;;;;;;8.77;4.15;;;11.70;99.90;;;;;;10396222;28;20026;-78
2022/10/09 00:20:38;;;;;;;8.20;3.70;;;11.70;99.90;;;;;;10393873;28;20918;-78
2022/10/09 00:25:39;;;;;;;12.43;4.85;;;11.70;99.90;;;;;;10390779;28;20033;-78
2022/10/09 00:30:39;;;;;;;7.65;3.72;;;11.60;99.90;;;;;;10400506;28;20037;-78
2022/10/09 00:35:41;;;;;;;12.13;4.68;;;11.70;99.90;;;;;;10389372;28;20053;-79
2022/10/09 00:40:41;;;;;;;12.82;4.05;;;11.60;99.90;;;;;;10392895;28;20068;-80
2022/10/09 00:45:55;;;;;;;8.70;4.05;;;11.60;99.90;;;;;;10391651;28;20052;-78
2022/10/09 00:50:59;;;;;;;10.90;4.10;;;11.50;99.90;;;;;;10369891;28;20037;-78
2022/10/09 00:56:00;;;;;;;6.88;3.53;;;11.40;99.90;;;;;;10389353;28;20033;-78
2022/10/09 01:01:01;;;;;;;8.93;3.75;;;11.20;99.90;;;;;;10381834;28;20042;-78
2022/10/09 01:06:07;;;;;;;5.93;3.60;;;10.90;99.90;;;;;;10391408;28;20053;-80
2022/10/09 01:11:30;;;;;;;7.72;3.60;;;10.60;99.90;;;;;;10401198;28;20029;-78
2022/10/09 01:16:37;;;;;;;7.22;3.78;;;10.50;99.90;;;;;;10404597;28;20127;-80
2022/10/09 01:21:45;;;;;;;11.88;5.90;;;10.50;99.90;;;;;;10404014;28;20473;-78
2022/10/09 01:26:50;;;;;;;7.47;4.35;;;10.60;99.90;;;;;;10398224;28;20029;-79
2022/10/09 01:31:51;;;;;;;10.00;4.40;;;10.60;99.90;;;;;;10403482;28;20047;-78
2022/10/09 01:36:53;;;;;;;12.65;4.68;;;10.60;99.90;;;;;;10380350;28;20117;-78
2022/10/09 01:41:54;;;;;;;8.63;4.40;;;10.50;99.90;;;;;;10388340;28;20057;-77
2022/10/09 01:46:55;;;;;;;11.82;4.72;;;10.40;99.90;;;;;;10403359;28;20064;-78
2022/10/09 01:52:06;;;;;;;12.25;4.63;;;10.40;99.90;;;;;;10398406;28;20696;-79
2022/10/09 01:57:09;;;;;;;11.90;5.03;;;10.20;99.90;;;;;;10398076;28;20128;-78
2022/10/09 02:02:10;;;;;;;14.60;5.78;;;10.10;99.90;;;;;;10399065;28;20584;-78
2022/10/09 02:07:10;;;;;;;11.10;5.30;;;9.80;99.90;;;;;;10402699;28;20021;-80
2022/10/09 02:12:14;;;;;;;10.00;5.32;;;9.70;99.90;;;;;;10398816;28;20034;-78
2022/10/09 02:17:20;;;;;;;15.75;4.68;;;9.70;99.90;;;;;;10388596;28;20037;-79
2022/10/09 02:22:26;;;;;;;6.35;3.97;;;9.70;99.90;;;;;;10410006;28;20034;-79
2022/10/09 02:27:27;;;;;;;12.48;5.57;;;9.70;99.90;;;;;;10407997;28;20596;-80
2022/10/09 02:32:28;;;;;;;19.30;7.13;;;9.60;99.90;;;;;;10409482;28;20377;-80
2022/10/09 02:37:29;;;;;;;9.85;4.75;;;9.50;99.90;;;;;;10388801;28;20046;-78
2022/10/09 02:42:29;;;;;;;8.63;4.78;;;9.50;99.90;;;;;;10409789;28;20124;-79
2022/10/09 02:47:30;;;;;;;11.52;4.35;;;9.30;99.90;;;;;;10400506;28;20021;-78
2022/10/09 02:52:30;;;;;;;13.17;5.83;;;9.10;99.90;;;;;;10391864;28;20026;-78
2022/10/09 02:57:31;;;;;;;15.37;6.07;;;9.00;99.90;;;;;;10406522;28;20036;-79
2022/10/09 03:02:31;;;;;;;8.70;5.53;;;8.80;99.90;;;;;;10388682;28;20041;-79
2022/10/09 03:07:32;;;;;;;15.87;6.60;;;8.50;99.90;;;;;;10406658;28;20030;-78
2022/10/09 03:12:32;;;;;;;10.57;5.63;;;8.40;99.90;;;;;;10392411;28;20021;-78
2022/10/09 03:17:33;;;;;;;11.23;6.00;;;8.20;99.90;;;;;;10387547;28;20030;-78
2022/10/09 03:22:34;;;;;;;14.77;7.17;;;8.10;99.90;;;;;;10401688;28;20038;-81
2022/10/09 03:27:34;;;;;;;15.33;8.33;;;8.00;99.90;;;;;;10388869;28;20021;-78
2022/10/09 03:32:35;;;;;;;18.70;9.40;;;8.10;99.90;;;;;;10400877;28;20033;-77
2022/10/09 03:37:35;;;;;;;20.53;9.83;;;7.90;99.90;;;;;;10405769;28;20655;-78
2022/10/09 03:42:36;;;;;;;19.40;10.90;;;7.90;99.90;;;;;;10385149;28;20124;-79
2022/10/09 03:47:36;;;;;;;48.37;21.60;;;7.90;99.90;;;;;;10394444;28;20041;-78
2022/10/09 03:52:37;;;;;;;54.60;22.70;;;8.00;99.90;;;;;;10398352;28;20355;-78
2022/10/09 03:57:38;;;;;;;34.70;14.77;;;8.00;99.90;;;;;;10386284;28;20037;-78
2022/10/09 04:02:38;;;;;;;29.33;12.67;;;8.00;99.90;;;;;;10394512;28;20037;-79
2022/10/09 04:07:39;;;;;;;33.33;17.53;;;7.90;99.90;;;;;;10403473;28;20027;-78
2022/10/09 04:12:39;;;;;;;26.00;13.37;;;7.90;99.90;;;;;;10396813;28;20048;-77
2022/10/09 04:17:40;;;;;;;19.93;10.17;;;7.80;99.90;;;;;;10395006;28;20033;-77
2022/10/09 04:22:40;;;;;;;31.87;12.67;;;7.80;99.90;;;;;;10398412;28;20600;-80
2022/10/09 04:27:41;;;;;;;20.40;11.03;;;7.80;99.90;;;;;;10396557;28;20041;-77
2022/10/09 04:32:41;;;;;;;20.60;10.60;;;7.70;99.90;;;;;;10389692;28;20103;-78
2022/10/09 04:37:42;;;;;;;20.50;9.53;;;7.60;99.90;;;;;;10379747;28;20133;-78
2022/10/09 04:42:43;;;;;;;21.97;10.77;;;7.50;99.90;;;;;;10390352;28;20042;-78
2022/10/09 04:47:43;;;;;;;29.37;13.40;;;7.40;99.90;;;;;;10396749;28;20166;-78
2022/10/09 04:52:44;;;;;;;36.00;15.17;;;7.50;99.90;;;;;;10391178;28;20045;-79
2022/10/09 04:57:45;;;;;;;34.10;16.23;;;7.60;99.90;;;;;;10397579;28;20032;-80
2022/10/09 05:02:45;;;;;;;32.20;16.00;;;7.70;99.90;;;;;;10386153;28;20037;-78
2022/10/09 05:07:46;;;;;;;44.33;23.10;;;7.80;99.90;;;;;;10390132;28;20153;-77
2022/10/09 05:12:46;;;;;;;50.17;27.53;;;8.00;99.90;;;;;;10404977;28;20021;-77
2022/10/09 05:17:47;;;;;;;46.00;25.10;;;8.20;99.90;;;;;;10377563;28;20041;-79
2022/10/09 05:22:47;;;;;;;47.30;24.43;;;8.30;99.90;;;;;;10399350;28;20704;-78
2022/10/09 05:27:48;;;;;;;38.20;22.33;;;8.40;99.90;;;;;;10402071;28;20045;-79
2022/10/09 05:32:48;;;;;;;30.53;19.40;;;8.50;99.90;;;;;;10398346;28;20038;-77
2022/10/09 05:37:49;;;;;;;26.37;14.57;;;8.60;99.90;;;;;;10398129;28;20521;-78
2022/10/09 05:42:50;;;;;;;14.93;8.77;;;8.80;99.90;;;;;;10404304;28;20404;-77
2022/10/09 05:47:50;;;;;;;15.30;8.07;;;8.90;99.90;;;;;;10405324;28;20041;-77
2022/10/09 05:52:51;;;;;;;12.80;7.80;;;9.00;99.90;;;;;;10409461;28;20021;-78
2022/10/09 05:57:52;;;;;;;23.67;13.93;;;9.10;99.90;;;;;;10390550;28;20059;-78
2022/10/09 06:02:53;;;;;;;22.52;12.73;;;9.20;99.90;;;;;;10401423;28;20381;-79
2022/10/09 06:07:54;;;;;;;14.70;7.60;;;9.40;99.90;;;;;;10402632;28;20074;-76
2022/10/09 06:12:55;;;;;;;11.50;5.65;;;9.60;99.90;;;;;;10402253;28;20139;-78
2022/10/09 06:17:55;;;;;;;11.98;6.22;;;9.60;99.90;;;;;;10396133;28;20095;-78
2022/10/09 06:22:56;;;;;;;12.67;7.73;;;9.50;99.90;;;;;;10402054;28;20114;-78
2022/10/09 06:27:57;;;;;;;18.00;7.10;;;9.60;99.90;;;;;;10398115;28;20025;-77
2022/10/09 06:32:57;;;;;;;11.33;7.07;;;9.70;99.90;;;;;;10405250;28;20637;-79
2022/10/09 06:37:58;;;;;;;12.93;5.40;;;9.70;99.90;;;;;;10406382;28;20156;-80
2022/10/09 06:42:59;;;;;;;9.60;5.55;;;9.90;99.90;;;;;;10404423;28;20063;-80
2022/10/09 06:47:59;;;;;;;12.93;7.00;;;9.90;99.90;;;;;;10401053;28;20029;-81
2022/10/09 06:53:00;;;;;;;14.13;7.50;;;9.90;99.90;;;;;;10405168;28;20427;-80
2022/10/09 06:58:00;;;;;;;12.05;6.43;;;10.00;99.90;;;;;;10404391;28;20452;-81
2022/10/09 07:03:01;;;;;;;14.18;7.40;;;10.20;99.90;;;;;;10403940;28;20033;-80
2022/10/09 07:08:01;;;;;;;17.60;7.25;;;10.40;99.90;;;;;;10404414;28;20037;-81
2022/10/09 07:13:02;;;;;;;12.40;6.80;;;10.50;99.90;;;;;;10406847;28;20428;-79
2022/10/09 07:18:03;;;;;;;13.32;6.18;;;10.50;99.90;;;;;;10408135;28;20419;-79
2022/10/09 07:23:03;;;;;;;12.32;6.55;;;10.50;99.90;;;;;;10402186;28;20640;-81
2022/10/09 07:28:04;;;;;;;11.75;7.10;;;10.50;99.90;;;;;;10406726;28;20030;-80
2022/10/09 07:33:04;;;;;;;12.20;6.53;;;10.50;99.90;;;;;;10381589;28;20587;-80
2022/10/09 07:38:05;;;;;;;10.77;6.90;;;10.60;99.90;;;;;;10406633;28;20359;-79
2022/10/09 07:43:06;;;;;;;10.57;6.25;;;10.60;99.90;;;;;;10405393;28;20033;-79
2022/10/09 07:48:06;;;;;;;13.18;6.78;;;10.70;99.90;;;;;;10402876;28;20086;-80
2022/10/09 07:53:07;;;;;;;13.73;7.40;;;11.00;99.90;;;;;;10404293;28;20040;-79
2022/10/09 07:58:08;;;;;;;28.15;15.00;;;11.20;99.90;;;;;;10390111;28;20025;-79
2022/10/09 08:03:09;;;;;;;15.10;6.68;;;11.30;99.90;;;;;;10393436;28;20041;-78
2022/10/09 08:08:10;;;;;;;12.88;7.88;;;11.40;99.90;;;;;;10404772;28;20041;-79
2022/10/09 08:13:11;;;;;;;17.20;8.70;;;11.60;99.90;;;;;;10385335;28;20485;-81
2022/10/09 08:18:11;;;;;;;13.32;7.35;;;11.60;99.90;;;;;;10391173;28;20044;-80
2022/10/09 08:23:12;;;;;;;14.13;7.00;;;11.70;99.90;;;;;;10390980;28;20045;-79
2022/10/09 08:28:12;;;;;;;9.82;5.95;;;12.20;99.90;;;;;;10406095;28;20041;-81
2022/10/09 08:33:13;;;;;;;9.48;5.25;;;12.70;99.90;;;;;;10390137;28;20133;-79
2022/10/09 08:38:14;;;;;;;9.90;5.28;;;13.00;99.90;;;;;;10403925;28;20029;-79
2022/10/09 08:43:18;;;;;;;9.82;5.50;;;12.90;99.90;;;;;;10399540;28;20655;-79
2022/10/09 08:48:22;;;;;;;6.40;4.15;;;12.90;99.90;;;;;;10401024;28;20026;-78
2022/10/09 08:54:03;;;;;;;9.38;4.70;;;13.00;99.90;;;;;;10398215;28;20021;-79
2022/10/09 08:59:03;;;;;;;5.80;4.05;;;13.30;99.90;;;;;;10376593;28;20501;-78
2022/10/09 09:04:23;;;;;;;6.13;3.58;;;13.50;99.90;;;;;;10399979;28;20041;-79
2022/10/09 09:09:44;;;;;;;5.90;3.75;;;13.30;99.90;;;;;;10402515;28;20080;-79
2022/10/09 09:15:04;;;;;;;7.15;3.40;;;13.20;99.90;;;;;;10398675;28;20037;-80
2022/10/09 09:20:32;;;;;;;15.23;6.20;;;12.70;99.90;;;;;;10389346;28;20040;-79
2022/10/09 09:25:38;;;;;;;6.55;3.33;;;13.00;99.90;;;;;;10397603;28;20038;-79
2022/10/09 09:30:47;;;;;;;9.13;3.70;;;13.30;99.90;;;;;;10393878;28;20605;-78
2022/10/09 09:36:17;;;;;;;6.13;3.28;;;13.80;99.90;;;;;;10384289;28;20144;-78
2022/10/09 09:41:17;;;;;;;13.45;6.57;;;13.70;99.90;;;;;;10393924;28;20030;-79
2022/10/09 09:46:22;;;;;;;7.45;3.88;;;13.30;99.90;;;;;;10399387;28;20037;-80
2022/10/09 09:51:30;;;;;;;9.27;4.30;;;13.50;99.90;;;;;;10404008;28;20034;-78
2022/10/09 09:56:39;;;;;;;9.40;3.60;;;13.80;99.90;;;;;;10393670;28;20497;-78
2022/10/09 10:01:40;;;;;;;10.00;3.42;;;14.20;99.90;;;;;;10395410;28;20046;-81
2022/10/09 10:06:43;;;;;;;9.02;3.00;;;14.30;99.90;;;;;;10398977;28;20452;-79
2022/10/09 10:12:00;;;;;;;5.95;2.90;;;14.20;99.90;;;;;;10402798;28;20040;-78
2022/10/09 10:17:01;;;;;;;7.47;4.55;;;14.70;99.90;;;;;;10399692;28;20030;-80
2022/10/09 10:22:04;;;;;;;5.93;2.45;;;15.10;99.90;;;;;;10397921;28;20029;-79
2022/10/09 10:27:26;;;;;;;4.32;3.03;;;15.10;99.90;;;;;;10405357;28;20033;-77
2022/10/09 10:32:51;;;;;;;4.57;2.28;;;15.20;99.90;;;;;;10399762;28;20030;-78
2022/10/09 10:38:21;;;;;;;6.47;2.57;;;15.50;99.90;;;;;;10394013;28;20405;-78
2022/10/09 10:43:29;;;;;;;4.78;2.40;;;15.40;99.90;;;;;;10401874;28;20067;-78
2022/10/09 10:48:38;;;;;;;4.03;2.60;;;14.80;99.90;;;;;;10410646;28;20052;-81
2022/10/09 10:54:05;;;;;;;4.82;3.17;;;14.10;99.90;;;;;;10406980;28;20492;-79
2022/10/09 10:59:21;;;;;;;3.78;3.00;;;13.90;99.90;;;;;;10401803;28;20033;-79
2022/10/09 11:04:53;;;;;;;5.20;1.95;;;13.90;99.90;;;;;;10409842;28;20038;-79
2022/10/09 11:10:19;;;;;;;4.93;2.47;;;14.50;99.90;;;;;;10407881;28;20060;-78
2022/10/09 11:15:44;;;;;;;2.97;2.40;;;15.00;99.90;;;;;;10401659;28;20107;-78
2022/10/09 11:21:00;;;;;;;3.53;2.42;;;15.10;99.90;;;;;;10406018;28;20029;-80
2022/10/09 11:26:31;;;;;;;5.60;2.35;;;14.40;99.90;;;;;;10398573;28;20044;-79
2022/10/09 11:31:50;;;;;;;8.65;2.75;;;13.90;99.90;;;;;;10408776;28;20032;-78
2022/10/09 11:36:52;;;;;;;5.22;2.33;;;14.20;99.90;;;;;;10402812;28;20159;-79
2022/10/09 11:41:54;;;;;;;49.92;26.63;;;15.10;99.90;;;;;;10397384;28;20037;-80
2022/10/09 11:47:11;;;;;;;6.18;3.55;;;15.40;99.90;;;;;;10402666;28;20501;-81
2022/10/09 11:52:40;;;;;;;5.95;2.67;;;15.50;99.90;;;;;;10399327;28;20120;-78
2022/10/09 11:57:40;;;;;;;9.73;2.45;;;15.70;98.50;;;;;;10395849;28;20096;-78
2022/10/09 12:02:42;;;;;;;4.47;2.30;;;15.20;96.30;;;;;;10380776;28;20052;-80
2022/10/09 12:07:43;;;;;;;4.75;2.20;;;15.40;98.20;;;;;;10374216;28;20056;-81
2022/10/09 12:12:44;;;;;;;3.03;1.75;;;15.60;94.60;;;;;;10392124;28;20026;-78
2022/10/09 12:17:47;;;;;;;4.60;2.33;;;15.60;92.90;;;;;;10399370;28;20057;-79
2022/10/09 12:22:54;;;;;;;4.22;1.70;;;16.10;92.50;;;;;;10402404;28;20120;-78
2022/10/09 12:27:57;;;;;;;3.22;1.40;;;16.20;91.60;;;;;;10387016;28;20034;-79
2022/10/09 12:33:06;;;;;;;4.40;1.50;;;16.20;87.90;;;;;;10381210;28;20083;-81
2022/10/09 12:38:24;;;;;;;1.73;1.10;;;16.00;88.40;;;;;;10383685;28;20679;-79
2022/10/09 12:43:24;;;;;;;5.18;1.60;;;15.90;86.80;;;;;;10396120;28;20413;-81
2022/10/09 12:48:26;;;;;;;3.33;1.50;;;16.00;87.00;;;;;;10406158;28;20034;-79
2022/10/09 12:53:28;;;;;;;1.98;1.30;;;15.40;85.80;;;;;;10402904;28;20029;-80
2022/10/09 12:58:35;;;;;;;5.03;1.30;;;14.80;86.50;;;;;;10384055;28;20021;-79
2022/10/09 13:03:40;;;;;;;3.88;1.38;;;14.30;87.60;;;;;;10403571;28;20045;-78
2022/10/09 13:08:41;;;;;;;4.05;1.40;;;14.20;90.70;;;;;;10399809;28;20435;-80
2022/10/09 13:13:47;;;;;;;2.38;1.58;;;14.20;89.60;;;;;;10399322;28;20029;-82
2022/10/09 13:18:59;;;;;;;2.50;1.58;;;13.90;89.70;;;;;;10397627;28;20505;-79
2022/10/09 13:24:10;;;;;;;3.90;1.42;;;13.70;90.20;;;;;;10396758;28;20095;-81
2022/10/09 13:29:13;;;;;;;2.65;1.30;;;14.00;90.30;;;;;;10387889;28;20171;-79
2022/10/09 13:34:15;;;;;;;21.27;10.10;;;14.50;90.40;;;;;;10391270;28;20062;-79
2022/10/09 13:39:16;;;;;;;3.80;1.73;;;14.80;90.00;;;;;;10393557;28;20021;-79
2022/10/09 13:44:16;;;;;;;2.17;1.30;;;15.30;87.60;;;;;;10397513;28;20084;-78
2022/10/09 13:49:17;;;;;;;2.88;2.00;;;15.40;84.30;;;;;;10404187;28;20040;-78
2022/10/09 13:54:18;;;;;;;3.63;1.40;;;15.50;89.30;;;;;;10401667;28;20029;-78
2022/10/09 13:59:18;;;;;;;4.45;1.90;;;15.80;86.90;;;;;;10402395;28;20584;-79
2022/10/09 14:04:19;;;;;;;4.25;1.58;;;15.90;85.30;;;;;;10403944;28;20497;-78
2022/10/09 14:09:20;;;;;;;4.20;1.52;;;15.90;85.50;;;;;;10393863;28;20052;-79
2022/10/09 14:14:21;;;;;;;5.03;1.33;;;15.60;82.90;;;;;;10396962;28;20026;-81
2022/10/09 14:19:26;;;;;;;4.60;1.65;;;15.40;82.90;;;;;;10402783;28;20029;-78
2022/10/09 14:24:26;;;;;;;5.37;1.83;;;15.30;84.60;;;;;;10400557;28;20731;-79
2022/10/09 14:29:27;;;;;;;5.82;1.63;;;15.20;84.50;;;;;;10401360;28;20033;-79
2022/10/09 14:34:27;;;;;;;6.13;1.75;;;15.20;85.30;;;;;;10399514;28;20053;-79
2022/10/09 14:39:28;;;;;;;3.60;1.60;;;15.20;85.20;;;;;;10410985;28;20611;-79
2022/10/09 14:44:29;;;;;;;3.08;1.30;;;15.20;86.60;;;;;;10395238;28;20033;-78
2022/10/09 14:49:29;;;;;;;2.42;1.38;;;15.00;85.00;;;;;;10386356;28;20125;-79
2022/10/09 14:54:30;;;;;;;4.07;1.25;;;14.90;85.60;;;;;;10405972;28;20037;-79
2022/10/09 14:59:30;;;;;;;4.70;1.45;;;14.70;85.10;;;;;;10401251;28;20528;-78
2022/10/09 15:04:32;;;;;;;4.90;1.65;;;14.60;86.00;;;;;;10408742;28;20037;-77
2022/10/09 15:09:32;;;;;;;3.35;1.60;;;14.30;85.50;;;;;;10403928;28;20067;-81
2022/10/09 15:14:33;;;;;;;5.28;1.65;;;14.10;86.60;;;;;;10400886;28;20036;-78
2022/10/09 15:19:33;;;;;;;5.75;2.08;;;14.00;88.00;;;;;;10408655;28;20072;-78
2022/10/09 15:24:34;;;;;;;5.53;1.67;;;13.90;88.70;;;;;;10405804;28;20096;-78
2022/10/09 15:29:34;;;;;;;7.50;2.13;;;13.70;90.10;;;;;;10402974;28;20116;-80
2022/10/09 15:34:35;;;;;;;7.53;2.28;;;13.50;90.10;;;;;;10401302;28;20050;-78
2022/10/09 15:39:35;;;;;;;5.30;2.45;;;13.30;91.70;;;;;;10394268;28;20018;-79
2022/10/09 15:44:36;;;;;;;6.10;2.50;;;12.80;92.40;;;;;;10401168;28;20114;-79
2022/10/09 15:49:36;;;;;;;6.95;3.05;;;12.40;93.30;;;;;;10389420;28;20025;-80
2022/10/09 15:54:37;;;;;;;6.10;3.00;;;12.00;94.40;;;;;;10400700;28;20037;-79
2022/10/09 15:59:40;;;;;;;7.03;3.13;;;11.60;95.30;;;;;;10399994;28;20029;-79
2022/10/09 16:04:40;;;;;;;8.48;3.63;;;11.30;97.10;;;;;;10398322;28;20037;-79
2022/10/09 16:09:41;;;;;;;11.75;4.28;;;10.80;99.90;;;;;;10405497;28;20898;-81
2022/10/09 16:14:41;;;;;;;7.28;3.60;;;10.50;99.90;;;;;;10395239;28;20465;-79
2022/10/09 16:19:42;;;;;;;10.43;5.05;;;10.20;99.90;;;;;;10399216;28;20038;-78
2022/10/09 16:24:43;;;;;;;11.23;5.97;;;9.90;99.90;;;;;;10386588;28;20509;-78
2022/10/09 16:29:43;;;;;;;9.20;5.20;;;9.70;99.90;;;;;;10388441;28;20025;-78
2022/10/09 16:34:48;;;;;;;14.23;5.73;;;9.50;99.90;;;;;;10394211;28;20085;-78
2022/10/09 16:39:49;;;;;;;13.00;6.80;;;9.30;99.90;;;;;;10401514;28;20037;-78
2022/10/09 16:44:50;;;;;;;14.17;7.10;;;9.20;99.90;;;;;;10405712;28;20037;-79
2022/10/09 16:49:51;;;;;;;11.83;6.47;;;9.10;99.90;;;;;;10396054;28;20029;-79
2022/10/09 16:54:52;;;;;;;12.23;6.73;;;9.00;99.90;;;;;;10401432;28;20444;-78
2022/10/09 16:59:53;;;;;;;22.13;8.37;;;8.80;99.90;;;;;;10390888;28;20448;-79
2022/10/09 17:04:53;;;;;;;18.40;8.10;;;8.80;99.90;;;;;;10389507;28;20096;-78
2022/10/09 17:09:54;;;;;;;22.77;9.57;;;8.70;99.90;;;;;;10395138;28;20362;-78
2022/10/09 17:14:54;;;;;;;22.27;11.20;;;8.60;99.90;;;;;;10377831;28;20033;-78
2022/10/09 17:19:55;;;;;;;31.83;16.17;;;8.50;99.90;;;;;;10403973;28;20041;-78
2022/10/09 17:24:55;;;;;;;33.33;17.53;;;8.40;99.90;;;;;;10406712;28;20038;-78
2022/10/09 17:29:56;;;;;;;38.07;17.43;;;8.40;99.90;;;;;;10408218;28;20037;-79
2022/10/09 17:34:56;;;;;;;32.03;16.40;;;8.30;99.90;;;;;;10411410;28;20111;-80
2022/10/09 17:39:57;;;;;;;33.90;17.03;;;8.20;99.90;;;;;;10394484;28;20034;-78
2022/10/09 17:44:58;;;;;;;33.80;17.83;;;8.10;99.90;;;;;;10410721;28;20128;-78
2022/10/09 17:49:58;;;;;;;41.83;19.03;;;8.20;99.90;;;;;;10410443;28;20022;-81
2022/10/09 17:54:59;;;;;;;36.57;19.83;;;8.20;99.90;;;;;;10411043;28;20060;-79
2022/10/09 17:59:59;;;;;;;37.63;20.00;;;8.10;99.90;;;;;;10407738;28;20037;-78
2022/10/09 18:05:00;;;;;;;43.73;22.23;;;8.00;99.90;;;;;;10401991;28;20036;-78
2022/10/09 18:10:00;;;;;;;54.33;28.37;;;8.00;99.90;;;;;;10411866;28;20543;-78
2022/10/09 18:15:02;;;;;;;53.73;26.50;;;8.00;99.90;;;;;;10410858;28;20075;-78
2022/10/09 18:20:04;;;;;;;50.90;26.03;;;8.10;99.90;;;;;;10401833;28;20036;-80
2022/10/09 18:25:07;;;;;;;52.27;25.93;;;7.90;99.90;;;;;;10411011;28;20032;-78
2022/10/09 18:30:09;;;;;;;52.80;25.07;;;7.90;99.90;;;;;;10400813;28;20415;-80
2022/10/09 18:35:09;;;;;;;53.20;25.83;;;7.80;99.90;;;;;;10408752;28;20148;-79
2022/10/09 18:40:10;;;;;;;51.83;24.50;;;7.80;99.90;;;;;;10391949;28;20037;-79
2022/10/09 18:45:13;;;;;;;44.43;24.27;;;7.80;99.90;;;;;;10395285;28;20045;-78
2022/10/09 18:50:14;;;;;;;48.17;23.60;;;7.80;99.90;;;;;;10410967;28;20025;-78
2022/10/09 18:55:16;;;;;;;43.30;23.00;;;7.70;99.90;;;;;;10404849;28;20112;-79
2022/10/09 19:00:17;;;;;;;46.10;22.97;;;7.50;99.90;;;;;;10404883;28;20434;-78
2022/10/09 19:05:18;;;;;;;45.47;23.40;;;7.40;99.90;;;;;;10393723;28;20120;-78
2022/10/09 19:10:18;;;;;;;49.97;25.17;;;7.40;99.90;;;;;;10406895;28;20036;-78
2022/10/09 19:15:19;;;;;;;50.87;25.27;;;7.40;99.90;;;;;;10400532;28;20413;-79
2022/10/09 19:20:20;;;;;;;48.40;24.47;;;7.30;99.90;;;;;;10409546;28;20091;-78
2022/10/09 19:25:21;;;;;;;47.33;22.50;;;7.10;99.90;;;;;;10397632;28;20422;-79
2022/10/09 19:30:22;;;;;;;50.63;24.27;;;7.00;99.90;;;;;;10398284;28;20041;-78
2022/10/09 19:35:22;;;;;;;45.63;23.70;;;7.20;99.90;;;;;;10401327;28;20049;-78
2022/10/09 19:40:23;;;;;;;48.27;23.97;;;7.40;99.90;;;;;;10400894;28;20031;-78
2022/10/09 19:45:23;;;;;;;45.97;23.00;;;7.40;99.90;;;;;;10405352;28;20046;-77
2022/10/09 19:50:24;;;;;;;41.27;21.20;;;7.40;99.90;;;;;;10407230;28;20560;-78
2022/10/09 19:55:24;;;;;;;39.97;21.73;;;7.40;99.90;;;;;;10394623;28;20038;-78
2022/10/09 20:00:26;;;;;;;42.17;22.20;;;7.30;99.90;;;;;;10407849;28;20033;-78
2022/10/09 20:05:26;;;;;;;39.33;20.00;;;7.40;99.90;;;;;;10406785;28;20037;-78
2022/10/09 20:10:29;;;;;;;39.10;20.13;;;7.40;99.90;;;;;;10403981;28;20034;-79
2022/10/09 20:15:30;;;;;;;42.33;20.83;;;7.50;99.90;;;;;;10402194;28;20040;-79
2022/10/09 20:20:34;;;;;;;47.67;22.03;;;7.50;99.90;;;;;;10400380;28;20037;-79
2022/10/09 20:25:34;;;;;;;43.20;22.40;;;7.50;99.90;;;;;;10396864;28;20042;-78
2022/10/09 20:30:35;;;;;;;44.43;23.07;;;7.40;99.90;;;;;;10405106;28;20037;-79
2022/10/09 20:35:42;;;;;;;49.30;25.83;;;7.20;99.90;;;;;;10383676;28;20533;-78
2022/10/09 20:40:43;;;;;;;47.57;23.07;;;7.00;99.90;;;;;;10380942;28;20025;-78
2022/10/09 20:45:45;;;;;;;54.03;26.17;;;6.90;99.90;;;;;;10394910;28;20054;-79
2022/10/09 20:50:46;;;;;;;49.87;24.33;;;6.80;99.90;;;;;;10405946;28;20033;-78
2022/10/09 20:55:46;;;;;;;47.03;23.20;;;6.70;99.90;;;;;;10383811;28;20064;-79
2022/10/09 21:00:47;;;;;;;50.93;22.57;;;6.50;99.90;;;;;;10400720;28;20087;-79
2022/10/09 21:05:48;;;;;;;45.23;23.70;;;6.40;99.90;;;;;;10396510;28;20047;-78
2022/10/09 21:10:49;;;;;;;47.33;23.97;;;6.30;99.90;;;;;;10395974;28;20488;-78
2022/10/09 21:15:49;;;;;;;53.93;26.93;;;6.10;99.90;;;;;;10395308;28;20072;-78
2022/10/09 21:20:50;;;;;;;34.40;17.97;;;6.00;99.90;;;;;;10400503;28;20124;-78
2022/10/09 21:25:52;;;;;;;29.23;14.53;;;5.90;99.90;;;;;;10404840;28;20060;-79
2022/10/09 21:30:52;;;;;;;37.73;19.00;;;5.90;99.90;;;;;;10402365;28;20030;-79
2022/10/09 21:35:54;;;;;;;39.70;19.90;;;5.90;99.90;;;;;;10399201;28;20049;-79
2022/10/09 21:40:54;;;;;;;35.73;18.37;;;5.90;99.90;;;;;;10386555;28;20033;-79
2022/10/09 21:45:55;;;;;;;37.47;18.47;;;5.90;99.90;;;;;;10398116;28;20052;-78
2022/10/09 21:50:56;;;;;;;40.57;19.17;;;5.90;99.90;;;;;;10392212;28;20038;-79
2022/10/09 21:55:56;;;;;;;41.83;20.97;;;5.80;99.90;;;;;;10403071;28;20637;-78
2022/10/09 22:00:59;;;;;;;34.80;18.00;;;5.90;99.90;;;;;;10402693;28;20030;-78
2022/10/09 22:06:04;;;;;;;35.00;17.10;;;6.10;99.90;;;;;;10398202;28;20041;-77
2022/10/09 22:11:09;;;;;;;50.23;22.90;;;6.10;99.90;;;;;;10405439;28;20393;-79
2022/10/09 22:16:12;;;;;;;36.90;17.80;;;6.10;99.90;;;;;;10410777;28;20536;-78
2022/10/09 22:21:14;;;;;;;33.00;17.73;;;5.90;99.90;;;;;;10411513;28;20033;-78
2022/10/09 22:26:20;;;;;;;29.20;14.70;;;5.90;99.90;;;;;;10410658;28;20485;-78
2022/10/09 22:31:23;;;;;;;28.93;16.17;;;5.80;99.90;;;;;;10401650;28;20034;-78
2022/10/09 22:36:26;;;;;;;29.07;14.27;;;5.80;99.90;;;;;;10411055;28;20049;-78
2022/10/09 22:41:28;;;;;;;33.63;18.13;;;5.90;99.90;;;;;;10409221;28;20034;-78
2022/10/09 22:46:31;;;;;;;29.83;15.27;;;5.90;99.90;;;;;;10399603;28;20041;-78
2022/10/09 22:51:32;;;;;;;26.57;14.10;;;5.80;99.90;;;;;;10398123;28;20029;-79
2022/10/09 22:56:36;;;;;;;27.10;13.43;;;5.80;99.90;;;;;;10393148;28;20056;-79
2022/10/09 23:01:43;;;;;;;33.90;18.20;;;5.80;99.90;;;;;;10410359;28;20108;-78
2022/10/09 23:06:44;;;;;;;36.90;18.03;;;5.90;99.90;;;;;;10409778;28;20034;-78
2022/10/09 23:11:45;;;;;;;36.20;17.00;;;6.20;99.90;;;;;;10408632;28;20642;-78
2022/10/09 23:16:46;;;;;;;32.13;17.43;;;6.20;99.90;;;;;;10410270;28;20041;-78
2022/10/09 23:21:47;;;;;;;34.77;17.33;;;6.30;99.90;;;;;;10409227;28;20477;-78
2022/10/09 23:26:50;;;;;;;32.30;17.20;;;6.30;99.90;;;;;;10409586;28;20385;-79
2022/10/09 23:31:52;;;;;;;32.80;16.83;;;6.30;99.90;;;;;;10401957;28;20033;-78
2022/10/09 23:36:52;;;;;;;36.30;18.17;;;6.30;99.90;;;;;;10407898;28;20068;-79
2022/10/09 23:41:53;;;;;;;34.43;17.40;;;6.30;99.90;;;;;;10394716;28;20032;-78
2022/10/09 23:46:53;;;;;;;31.33;17.33;;;6.30;99.90;;;;;;10406825;28;20049;-79
2022/10/09 23:51:54;;;;;;;38.97;20.03;;;6.30;99.90;;;;;;10407553;28;20029;-80
2022/10/09 23:56:55;;;;;;;36.70;19.67;;;6.30;99.90;;;;;;10407968;28;20115;-78
